Steptoe Valley North, Nevada Weather observations

Data are for 10 minute period ending at time listed.
 Day   Time   Solar   Ave.   Ave.  Ave.  Vector  Max.   Baro.   Total    
  of    of     Rad.   Air    Rel.  Wind   Wind   Wind  Press.  Precip.   
Year   Day            Temp.  Hum.  Speed  Dir.   Gust                    
2014   (PST)  Kw/m2    F      %     mph   deg.    mph    mb.     in.     
-------------------------------------------------------------------------
 204   17:00   0.33   85.5    16   11.8   202    20.0   820.5    0.00 
 204   17:10   0.30   85.9    15   10.5   210    14.8   820.4    0.00 
 204   17:20   0.26   85.9    14   13.6   210    26.8   820.3    0.00 
 204   17:30   0.23   85.3    14   11.5   201    18.6   820.3    0.00 
 204   17:40   0.20   85.2    14   13.9   208    21.9   820.3    0.00 
 204   17:50   0.17   85.1    14   10.7   212    16.5   820.3    0.00 
 204   18:00   0.14   84.5    14   10.7   207    17.3   820.2    0.00 
 204   18:10   0.12   83.9    14   11.3   204    18.3   820.2    0.00 
 204   18:20   0.09   84.0    13   12.3   204    18.9   820.2    0.00 
 204   18:30   0.07   83.5    13    9.9   223    15.8   820.3    0.00 
 204   18:40   0.05   81.5    15    7.5   223    11.5   820.4    0.00 
 204   18:50   0.02   78.4    18    6.3   216     8.3   820.5    0.00 
 204   19:00   0.01   75.1    22    4.8   212     7.3   820.6    0.00 
 204   19:10   0.01   73.6    24    4.5   207     5.8   820.7    0.00 
 204   19:20   0.00   70.7    26    3.8   183     5.0   820.9    0.00 
 204   19:30   0.00   71.0    21    4.7   148     6.2   821.1    0.00 
 204   19:40   0.00   69.0    27    4.4    78     7.8   821.3    0.00 
 204   19:50   0.00   65.3    29    5.3   324    10.0   821.6    0.00 
 204   20:00   0.00   76.0    16    2.4    40     4.6   821.7    0.00 
 204   20:10   0.00   72.9    22    4.2    42     5.1   821.8    0.00 
 204   20:20   0.00   68.7    30    6.2    24     7.9   821.8    0.00 
 204   20:30   0.00   64.5    40    3.2    22     6.8   821.9    0.00 
 204   20:40   0.00   64.3    37    3.1   115     6.2   822.0    0.00 
 204   20:50   0.00   68.5    27    3.1    74     4.9   822.1    0.00 
 204   21:00   0.00   69.8    26    3.8    81     5.3   822.1    0.00 
 204   21:10   0.00   63.5    37    3.6    72     5.6   822.2    0.00 
 204   21:20   0.00   63.0    38    4.3    54     6.7   822.2    0.00 
 204   21:30   0.00   57.8    56    3.7   118     4.9   822.2    0.00 
 204   21:40   0.00   57.4    56    3.8   104     5.6   822.2    0.00 
 204   21:50   0.00   58.3    48    3.5   106     6.4   822.2    0.00 
 204   22:00   0.00   59.0    47    2.2    94     4.5   822.1    0.00 
 204   22:10   0.00   58.8    49    3.2   158     7.0   822.1    0.00 
 204   22:20   0.00   58.3    45    2.4   266     3.5   822.2    0.00 
 204   22:30   0.00   54.4    59    4.5   331     8.3   822.2    0.00 
 204   22:40   0.00   51.2    70    0.4    20     2.0   822.1    0.00 
 204   22:50   0.00   52.7    64    3.0   350     5.3   822.1    0.00 
 204   23:00   0.00   54.1    57    3.6    32     5.1   822.1    0.00 
 204   23:10   0.00   53.3    52    2.8    69     4.5   822.2    0.00 
 204   23:20   0.00   54.0    50    2.3    80     5.7   822.1    0.00 
 204   23:30   0.00   53.2    53    2.0    31     4.3   822.1    0.00 
 204   23:40   0.00   53.2    51    2.6   350     5.3   822.2    0.00 
 204   23:50   0.00   58.2    37    0.8    12     2.6   822.3    0.00 
 205    0:00   0.00   56.6    45    2.4   188     5.5   822.2    0.00 
 205    0:10   0.00   56.2    45    3.5   148     6.1   822.3    0.00 
 205    0:20   0.00   51.3    62    5.1   102     6.6   822.3    0.00 
 205    0:30   0.00   49.5    62    4.3   101     5.4   822.3    0.00 
 205    0:40   0.00   51.1    52    4.8    82     6.9   822.2    0.00 
 205    0:50   0.00   52.4    49    2.7    90     5.0   822.2    0.00 
 205    1:00   0.00   51.9    54    2.7   144     4.4   822.2    0.00 
 205    1:10   0.00   51.7    54    2.8   209     4.2   822.0    0.00 
 205    1:20   0.00   51.9    59    1.6   235     4.0   822.0    0.00 
 205    1:30   0.00   52.3    49    1.7    83     4.1   822.0    0.00 
 205    1:40   0.00   49.1    63    3.1   352     5.6   822.0    0.00 
 205    1:50   0.00   46.8    66    3.2     6     5.1   822.1    0.00 
 205    2:00   0.00   45.4    70    3.2    11     4.7   822.1    0.00 
 205    2:10   0.00   44.3    72    2.4   341     5.1   822.3    0.00 
 205    2:20   0.00   45.6    62    2.0   349     4.1   822.3    0.00 
 205    2:30   0.00   46.0    63    1.8    47     3.7   822.4    0.00 
 205    2:40   0.00   44.5    70    3.2    77     4.5   822.3    0.00 
 205    2:50   0.00   42.9    74    3.0     2     4.7   822.4    0.00 
 205    3:00   0.00   42.1    76    3.1    51     6.0   822.5    0.00 
 205    3:10   0.00   42.9    73    2.7   331     4.5   822.6    0.00 
 205    3:20   0.00   43.6    67    1.8    29     3.4   822.7    0.00 
 205    3:30   0.00   45.2    63    3.8   351     4.9   822.7    0.00 
 205    3:40   0.00   44.6    60    3.7    47     4.3   822.8    0.00 
 205    3:50   0.00   44.2    61    2.7    50     4.5   822.9    0.00 
 205    4:00   0.00   43.3    67    1.6   104     3.6   823.0    0.00 
 205    4:10   0.00   42.7    71    3.0   113     5.0   823.0    0.00 
 205    4:20   0.00   41.8    76    4.0   107     5.5   823.1    0.00 
 205    4:30   0.00   41.6    74    2.7   357     5.1   823.1    0.00 
 205    4:40   0.01   40.4    79    2.6   357     4.5   823.2    0.00 
 205    4:50   0.02   40.5    79    2.5    14     3.4   823.3    0.00 
 205    5:00   0.05   41.3    79    2.9    41     4.2   823.4    0.00 
 205    5:10   0.09   42.8    80    1.6   213     3.6   823.5    0.00 
 205    5:20   0.11   45.4    70    1.8   263     6.0   823.6    0.00 
 205    5:30   0.14   49.8    55    0.9     7     3.2   823.5    0.00 
 205    5:40   0.18   53.7    57    2.3   323     4.3   823.5    0.00 
 205    5:50   0.21   54.8    60    1.3    28     5.1   823.5    0.00 
 205    6:00   0.25   56.8    56    0.9   316     2.6   823.4    0.00 
 205    6:10   0.29   58.7    62    0.6   251     2.2   823.4    0.00 
 205    6:20   0.33   58.4    70    0.8     2     1.9   823.5    0.00 
 205    6:30   0.37   61.0    68    0.4   332     2.0   823.5    0.00 
 205    6:40   0.41   62.2    62    1.6     6     2.9   823.7    0.00 
 205    6:50   0.45   63.0    59    2.4   353     3.4   823.8    0.00 
 205    7:00   0.49   64.6    62    1.8     2     3.4   823.9    0.00 
 205    7:10   0.52   67.2    54    1.0   359     1.8   824.1    0.00 
 205    7:20   0.56   68.9    48    1.3   357     2.3   824.2    0.00 
 205    7:30   0.55   70.2    37    0.3   346     1.2   824.1    0.00 
 205    7:40   0.58   72.8    30    0.3   234     2.3   824.1    0.00 
 205    7:50   0.61   75.1    31    1.9   313     4.7   824.1    0.00 
 205    8:00   0.62   72.7    38    3.1   356     4.4   824.1    0.00 
 205    8:10   0.67   73.8    40    1.9   330     3.1   824.1    0.00 
 205    8:20   0.70   74.6    34    2.6   347     4.1   824.1    0.00 
 205    8:30   0.72   75.5    29    1.9    15     4.2   824.1    0.00 
 205    8:40   0.75   76.2    30    2.2     2     3.4   824.0    0.00 
 205    8:50   0.77   76.2    33    3.5   350     6.2   824.0    0.00 
 205    9:00   0.79   76.9    35    2.0   324     4.2   824.0    0.00 
 205    9:10   0.81   77.9    31    2.7    29     4.8   823.9    0.00 
 205    9:20   0.84   79.6    24    1.7   218     4.5   823.8    0.00 
 205    9:30   0.85   80.2    24    2.1    14     4.5   823.7    0.00 
 205    9:40   0.87   80.8    28    3.9   186     8.0   823.6    0.00 
 205    9:50   0.89   80.0    30    5.9   202     9.9   823.6    0.00 
 205   10:00   0.91   79.3    28    6.0   218     9.9   823.4    0.00 
 205   10:10   0.93   79.1    28    8.2   219    13.0   823.4    0.00 
 205   10:20   0.95   79.3    29    6.8   221    12.4   823.4    0.00 
 205   10:30   0.96   80.1    30    6.1   220    10.4   823.3    0.00 
 205   10:40   0.97   81.5    26    4.0   229     8.0   823.2    0.00 
 205   10:50   0.96   82.5    25    4.1   287     7.9   823.1    0.00 
 205   11:00   0.96   84.0    24    3.6   198    11.5   823.0    0.00 
 205   11:10   0.97   81.8    32    6.2   193    13.2   822.9    0.00 
 205   11:20   0.98   81.9    29    6.1   226    12.2   822.9    0.00 
 205   11:30   0.98   82.6    24    4.1   288     9.1   822.8    0.00 
 205   11:40   0.98   84.5    21    4.5   300    12.0   822.6    0.00 
 205   11:50   0.97   84.3    22    3.1   320    10.4   822.4    0.00 
 205   12:00   0.97   83.8    27    5.3   324    10.4   822.2    0.00 
 205   12:10   0.97   83.4    34    5.5   335     9.2   822.1    0.00 
 205   12:20   0.96   82.4    31    7.0   331    12.3   822.0    0.00 
 205   12:30   0.96   83.3    28    5.6   346     9.3   821.9    0.00 
 205   12:40   0.95   84.0    30    4.9     3     7.9   821.7    0.00 
 205   12:50   0.94   84.3    32    4.9   354     8.8   821.5    0.00 
 205   13:00   0.93   83.8    31    5.7   346    10.7   821.4    0.00 
 205   13:10   0.92   85.4    34    1.5   274     4.8   821.2    0.00 
 205   13:20   0.90   87.7    22    4.1   208    13.1   821.1    0.00 
 205   13:30   0.89   85.1    27    6.7   211    14.2   821.0    0.00 
 205   13:40   0.87   85.6    20    7.7   267    16.9   820.9    0.00 
 205   13:50   0.85   85.9    23    5.7   242    12.3   820.7    0.00 
 205   14:00   0.84   84.8    24    9.1   288    21.5   820.6    0.00 
 205   14:10   0.81   86.7    23    5.0   267    13.4   820.5    0.00 
 205   14:20   0.79   87.2    19    4.6   243     9.2   820.4    0.00 
 205   14:30   0.77   87.8    25    2.9    26     5.6   820.3    0.00 
 205   14:40   0.74   87.0    29    4.3   345     8.0   820.2    0.00 
 205   14:50   0.72   85.3    36    3.5   345     9.4   820.1    0.00 
 205   15:00   0.70   87.0    27    3.3   353     6.6   820.1    0.00 
 205   15:10   0.67   88.2    27    3.2   326     6.4   819.9    0.00 
 205   15:20   0.64   87.1    23    5.6   252     9.6   819.9    0.00 
 205   15:30   0.64   87.6    22    4.2   313     6.6   819.9    0.00 
 205   15:40   0.53   87.2    19    9.4    80    16.5   820.0    0.00 
 205   15:50   0.40   84.7    17   10.1    77    18.0   820.0    0.00 
 205   16:00   0.55   84.0    19   11.1    57    17.2   819.8    0.00 
 205   16:10   0.45   83.1    21    9.8    55    14.7   819.6    0.00 
 205   16:20   0.48   84.3    18    9.5    66    15.1   819.6    0.00 
 205   16:30   0.44   83.8    22    6.9    54    10.7   819.6    0.00 
 205   16:40   0.27   84.8    16    7.7    78    15.3   819.7    0.00 
 205   16:50   0.31   83.8    16   11.2    97    18.0   819.6    0.00 

Return to Steptoe Valley North graphs page.


Western Regional Climate Center,wrcc@dri.edu